Etusivu
METAR-TAF:

METAR-TAF

Lentoasemat :

Vaasa, Suomi

Vaasan lentoasema

Leveyspiiri: 63-03N, Pituuspiiri: 021-46E, korkeus merenpinnasta: 4 m

Tämänhetkinen sää

Tämä raportti tehtiin 35 minuuttia sitten, kello 23.50 UTC
Tuuli 6 kn pohjoisesta/koillisesta
Lämpötila 1°C
Kosteus 93%
Ilmanpaine 1002 hPa
Näkyvyys: 9000 m

METAR: EFVA 192350Z AUTO 03006KT 9000 BKN003/// BKN019/// 01/00 Q1002

Aika: 02:25 (00:25 UTC)

Sääennuste

Tämä raportti tehtiin 21 minuuttia sitten, kello 00.04 UTC
Ennuste voimassa 20. päivästä klo 00 UTC - 21. päivään klo 00 UTC
Tuuli 3 kn pohjoisesta
Näkyvyys: 8000 m
Muutamia pilviä 300 ft:n korkeudessa
Pilvistä 2000 ft:n korkeudessa
Ajoittain
20. päivästä klo 00 UTC - 20. päivään klo 15 UTC
Näkyvyys: 4000 m
Hajonneita pilviä 300 ft:n korkeudessa
heikkoa lumisadetta, sadetta

TAF: EFVA 200004Z 2000/2100 01003KT 8000 FEW003 OVC020 TEMPO 2000/2015 4000 -SNRA BKN003

Säähavainnot ja -ennusteet yli 4000 lentoasemalta (METAR- ja TAF-raportit).

Käytössä olevat sääasemat on merkitty karttaan keltaisilla ja punaisilla pisteillä.

Aseta hiiri pisteen päälle nähdäksesi sääaseman nimen.

Klikkaa sitten nähdäksesi säähavainnot ja -ennusteet.

Kartan vaihtaminen: klikkaa mustalla rastilla varustettuja vihreitä pisteitä, niin voit zoomata sisään; viivalla varustettua vihreää pistettä, niin voit zoomata ulos tai vihreitä nuolia, niin pääset viereisille kartoille.


METAR-TAF: